createdAt,value
2018-05-07T00:00:53.544Z,56.60
2018-05-07T00:03:21.714Z,56.40
2018-05-07T00:05:49.931Z,56.70
2018-05-07T00:08:18.878Z,57.00
2018-05-07T00:10:47.234Z,57.00
2018-05-07T00:13:15.399Z,56.30
2018-05-07T00:15:43.594Z,56.20
2018-05-07T00:18:11.762Z,57.10
2018-05-07T00:20:41.883Z,57.70
2018-05-07T00:23:10.816Z,61.30
2018-05-07T00:25:38.998Z,60.70
2018-05-07T00:28:07.167Z,58.10
2018-05-07T00:30:35.406Z,57.40
2018-05-07T00:33:03.958Z,55.80
2018-05-07T00:35:32.240Z,55.40
2018-05-07T00:38:00.400Z,54.90
2018-05-07T00:40:28.555Z,53.90
2018-05-07T00:42:56.830Z,53.00
2018-05-07T00:45:24.975Z,51.70
2018-05-07T00:47:53.189Z,51.80
2018-05-07T00:50:21.558Z,49.80
2018-05-07T00:52:49.671Z,50.90
2018-05-07T00:55:22.437Z,52.40
2018-05-07T00:57:51.375Z,51.80
2018-05-07T01:00:19.590Z,51.80
2018-05-07T01:02:47.758Z,51.90
2018-05-07T01:05:15.915Z,51.60
2018-05-07T01:07:44.086Z,52.50
2018-05-07T01:10:12.276Z,53.80
2018-05-07T01:12:40.564Z,55.10
2018-05-07T01:15:08.698Z,56.00
2018-05-07T01:17:36.922Z,55.70
2018-05-07T01:20:05.066Z,54.90
2018-05-07T01:22:33.248Z,54.40
2018-05-07T01:25:01.496Z,55.50
2018-05-07T01:27:29.701Z,53.90
2018-05-07T01:29:58.771Z,53.70
2018-05-07T01:32:26.968Z,53.60
2018-05-07T01:34:55.110Z,52.30
2018-05-07T01:37:23.311Z,53.80
2018-05-07T01:39:52.469Z,56.90
2018-05-07T01:42:20.634Z,56.90
2018-05-07T01:44:49.555Z,58.50
2018-05-07T01:47:17.752Z,58.50
2018-05-07T01:49:46.831Z,58.80
2018-05-07T01:52:15.011Z,58.70
2018-05-07T01:54:43.167Z,58.10
2018-05-07T01:57:11.350Z,56.60
2018-05-07T01:59:40.343Z,57.50
2018-05-07T02:02:08.531Z,57.50
2018-05-07T02:04:36.711Z,59.10
2018-05-07T02:07:04.993Z,59.60
2018-05-07T02:09:33.221Z,61.90
2018-05-07T02:12:02.185Z,60.90
2018-05-07T02:14:35.917Z,60.90
2018-05-07T02:17:04.133Z,60.60
2018-05-07T02:19:33.107Z,61.70
2018-05-07T02:22:01.284Z,61.60
2018-05-07T02:24:29.552Z,63.00
2018-05-07T02:26:57.723Z,62.60
2018-05-07T02:29:26.033Z,62.40
2018-05-07T02:31:54.208Z,64.40
2018-05-07T02:34:22.391Z,64.70
2018-05-07T02:36:50.541Z,64.20
2018-05-07T02:39:18.832Z,64.00
2018-05-07T02:41:46.979Z,65.40
2018-05-07T02:44:15.155Z,65.10
2018-05-07T02:46:43.335Z,65.80
2018-05-07T02:49:11.642Z,65.80
2018-05-07T02:51:39.806Z,66.20
2018-05-07T02:54:07.968Z,65.90
2018-05-07T02:56:36.115Z,65.60
2018-05-07T02:59:04.428Z,65.60
2018-05-07T03:01:32.606Z,65.00
2018-05-07T03:04:00.930Z,66.40
2018-05-07T03:06:29.060Z,66.20
2018-05-07T03:08:58.032Z,67.40
2018-05-07T03:11:26.184Z,67.40
2018-05-07T03:13:54.420Z,66.80
2018-05-07T03:16:22.572Z,68.00
2018-05-07T03:18:52.390Z,70.20
2018-05-07T03:21:20.536Z,69.40
2018-05-07T03:23:48.803Z,69.30
2018-05-07T03:26:16.968Z,70.30
2018-05-07T03:28:46.135Z,70.00
2018-05-07T03:31:14.370Z,69.10
2018-05-07T03:33:42.547Z,71.20
2018-05-07T03:36:10.743Z,71.80
2018-05-07T03:38:38.931Z,70.10
2018-05-07T03:41:07.183Z,70.60
2018-05-07T03:43:35.354Z,70.50
2018-05-07T03:46:03.518Z,72.20
2018-05-07T03:48:31.803Z,72.50
2018-05-07T03:50:59.953Z,72.10
2018-05-07T03:53:28.157Z,71.80
2018-05-07T03:55:57.837Z,71.00
2018-05-07T03:58:26.088Z,71.00
2018-05-07T04:00:55.007Z,71.30
2018-05-07T04:03:23.210Z,71.30
2018-05-07T04:05:51.380Z,71.60
2018-05-07T04:08:19.699Z,71.70
2018-05-07T04:10:47.851Z,73.20
2018-05-07T04:13:16.098Z,73.10
2018-05-07T04:15:44.984Z,71.50
2018-05-07T04:18:25.039Z,71.40
2018-05-07T04:21:05.175Z,71.60
2018-05-07T04:23:45.249Z,73.60
2018-05-07T04:26:13.408Z,73.40
2018-05-07T04:28:41.739Z,73.60
2018-05-07T04:31:09.995Z,72.20
2018-05-07T04:33:38.324Z,72.50
2018-05-07T04:36:06.412Z,73.20
2018-05-07T04:38:35.414Z,73.70
2018-05-07T04:41:03.620Z,73.60
2018-05-07T04:43:31.777Z,73.60
2018-05-07T04:45:59.948Z,73.60
2018-05-07T04:48:28.266Z,74.30
2018-05-07T04:50:57.326Z,73.90
2018-05-07T04:53:25.466Z,73.90
2018-05-07T04:55:53.671Z,74.00
2018-05-07T04:58:21.819Z,74.90
2018-05-07T05:00:49.999Z,75.00
2018-05-07T05:03:18.206Z,74.00
2018-05-07T05:05:46.380Z,74.40
2018-05-07T05:08:14.746Z,73.90
2018-05-07T05:10:42.911Z,74.40
2018-05-07T05:13:11.093Z,73.90
2018-05-07T05:15:39.258Z,74.40
2018-05-07T05:18:07.416Z,74.30
2018-05-07T05:20:35.611Z,73.90
2018-05-07T05:23:03.788Z,74.00
2018-05-07T05:25:31.959Z,73.00
2018-05-07T05:28:00.141Z,72.40
2018-05-07T05:30:28.311Z,71.40
2018-05-07T05:32:56.492Z,69.50
2018-05-07T05:35:24.763Z,69.30
2018-05-07T05:37:52.916Z,71.40
2018-05-07T05:40:21.097Z,68.60
2018-05-07T05:42:49.287Z,67.30
2018-05-07T05:45:17.455Z,70.00
2018-05-07T05:47:46.416Z,67.60
2018-05-07T05:50:14.597Z,67.60
2018-05-07T05:52:42.760Z,65.90
2018-05-07T05:55:11.735Z,62.90
2018-05-07T05:57:39.963Z,62.90
2018-05-07T06:00:08.136Z,62.50
2018-05-07T06:02:36.328Z,60.90
2018-05-07T06:05:04.511Z,61.50
2018-05-07T06:07:34.286Z,60.50
2018-05-07T06:10:02.458Z,60.40
2018-05-07T06:12:30.653Z,60.00
2018-05-07T06:14:58.949Z,60.20
2018-05-07T06:17:27.123Z,59.00
2018-05-07T06:19:55.263Z,59.10
2018-05-07T06:22:23.439Z,59.40
2018-05-07T06:24:51.640Z,59.10
2018-05-07T06:27:20.026Z,58.50
2018-05-07T06:29:48.322Z,59.10
2018-05-07T06:32:18.003Z,58.30
2018-05-07T06:34:46.158Z,58.30
2018-05-07T06:37:15.174Z,56.90
2018-05-07T06:39:43.343Z,56.70
2018-05-07T06:42:11.508Z,56.00
2018-05-07T06:44:39.679Z,56.00
2018-05-07T06:47:08.000Z,55.20
2018-05-07T06:49:36.952Z,55.60
2018-05-07T06:52:05.241Z,55.70
2018-05-07T06:54:33.411Z,56.20
2018-05-07T06:57:01.688Z,55.80
2018-05-07T06:59:29.874Z,55.60
2018-05-07T07:01:58.051Z,54.20
2018-05-07T07:04:26.232Z,54.50
2018-05-07T07:06:54.607Z,55.30
2018-05-07T07:09:23.993Z,53.30
2018-05-07T07:11:52.193Z,53.30
2018-05-07T07:14:20.341Z,53.40
2018-05-07T07:16:49.328Z,52.50
2018-05-07T07:19:17.479Z,52.50
2018-05-07T07:21:45.685Z,54.70
2018-05-07T07:24:14.571Z,54.10
2018-05-07T07:26:42.945Z,52.80
2018-05-07T07:29:11.094Z,51.90
2018-05-07T07:31:39.295Z,52.20
2018-05-07T07:34:07.542Z,51.60
2018-05-07T07:36:36.439Z,52.40
2018-05-07T07:39:05.499Z,52.40
2018-05-07T07:41:34.433Z,51.40
2018-05-07T07:44:02.590Z,51.50
2018-05-07T07:46:30.831Z,52.50
2018-05-07T07:48:59.782Z,51.80
2018-05-07T07:51:27.956Z,51.80
2018-05-07T07:53:56.127Z,52.70
2018-05-07T07:56:25.244Z,50.00
2018-05-07T07:58:53.397Z,50.00
2018-05-07T08:01:21.692Z,52.40
2018-05-07T08:03:49.845Z,52.20
2018-05-07T08:06:18.148Z,50.30
2018-05-07T08:08:47.809Z,52.40
2018-05-07T08:11:16.014Z,52.40
2018-05-07T08:13:44.194Z,48.70
2018-05-07T08:16:12.366Z,50.80
2018-05-07T08:18:40.540Z,50.40
2018-05-07T08:21:08.688Z,49.90
2018-05-07T08:23:36.859Z,50.30
2018-05-07T08:26:05.071Z,49.40
2018-05-07T08:28:33.348Z,48.70
2018-05-07T08:31:01.526Z,48.00
2018-05-07T08:33:29.695Z,49.60
2018-05-07T08:35:57.875Z,49.00
2018-05-07T08:38:26.055Z,48.10
2018-05-07T08:40:54.237Z,46.00
2018-05-07T08:43:22.419Z,49.10
2018-05-07T08:45:51.344Z,48.60
2018-05-07T08:48:19.528Z,48.60
2018-05-07T08:50:47.729Z,46.90
2018-05-07T08:53:16.032Z,47.00
2018-05-07T08:55:44.179Z,46.20
2018-05-07T08:58:12.453Z,45.40
2018-05-07T09:00:40.627Z,48.20
2018-05-07T09:03:08.921Z,48.20
2018-05-07T09:05:37.211Z,45.60
2018-05-07T09:08:06.251Z,45.90
2018-05-07T09:10:34.343Z,45.90
2018-05-07T09:13:02.797Z,46.40
2018-05-07T09:15:31.038Z,45.00
2018-05-07T09:17:59.276Z,43.80
2018-05-07T09:20:27.559Z,45.80
2018-05-07T09:22:55.827Z,45.60
2018-05-07T09:25:24.024Z,44.60
2018-05-07T09:27:52.278Z,43.60
2018-05-07T09:30:20.461Z,43.60
2018-05-07T09:32:48.648Z,42.90
2018-05-07T09:35:16.908Z,43.80
2018-05-07T09:37:45.082Z,43.50
2018-05-07T09:40:13.234Z,44.70
2018-05-07T09:42:41.421Z,43.00
2018-05-07T09:45:09.714Z,45.10
2018-05-07T09:47:37.911Z,45.40
2018-05-07T09:50:06.056Z,44.10
2018-05-07T09:52:34.347Z,42.30
2018-05-07T09:55:02.635Z,43.90
2018-05-07T09:57:30.895Z,41.10
2018-05-07T09:59:59.061Z,43.20
2018-05-07T10:02:27.323Z,42.60
2018-05-07T10:04:55.591Z,41.40
2018-05-07T10:07:23.820Z,42.30
2018-05-07T10:09:51.983Z,43.20
2018-05-07T10:12:20.131Z,42.50
2018-05-07T10:14:48.335Z,43.70
2018-05-07T10:17:16.587Z,40.50
2018-05-07T10:19:44.835Z,40.70
2018-05-07T10:22:12.999Z,40.20
2018-05-07T10:24:42.123Z,38.20
2018-05-07T10:27:10.383Z,38.20
2018-05-07T10:29:38.542Z,41.20
2018-05-07T10:32:07.456Z,40.20
2018-05-07T10:34:35.623Z,40.10
2018-05-07T10:37:03.777Z,41.00
2018-05-07T10:39:31.953Z,40.90
2018-05-07T10:42:00.103Z,39.10
2018-05-07T10:44:28.272Z,38.90
2018-05-07T10:46:56.431Z,40.30
2018-05-07T10:49:24.689Z,39.50
2018-05-07T10:51:52.866Z,40.90
2018-05-07T10:54:21.035Z,39.30
2018-05-07T10:56:49.188Z,40.00
2018-05-07T10:59:17.359Z,39.40
2018-05-07T11:01:45.515Z,37.90
2018-05-07T11:04:13.830Z,39.20
2018-05-07T11:06:42.131Z,40.20
2018-05-07T11:09:10.307Z,37.60
2018-05-07T11:11:38.567Z,39.70
2018-05-07T11:14:06.944Z,38.80
2018-05-07T11:16:35.087Z,38.70
2018-05-07T11:19:03.259Z,38.20
2018-05-07T11:21:31.403Z,37.40
2018-05-07T11:23:59.743Z,38.70
2018-05-07T11:26:27.883Z,38.90
2018-05-07T11:28:56.055Z,37.60
2018-05-07T11:31:24.195Z,39.10
2018-05-07T11:33:52.543Z,35.70
2018-05-07T11:36:20.699Z,36.70
2018-05-07T11:38:48.892Z,37.10
2018-05-07T11:41:17.039Z,37.50
2018-05-07T11:43:45.252Z,38.00
2018-05-07T11:46:13.408Z,39.70
2018-05-07T11:48:41.568Z,38.20
2018-05-07T11:51:09.735Z,38.30
2018-05-07T11:53:38.439Z,37.60
2018-05-07T11:56:06.715Z,37.60
2018-05-07T11:58:34.867Z,35.80
2018-05-07T12:01:03.887Z,37.60
2018-05-07T12:03:32.880Z,35.70
2018-05-07T12:06:01.056Z,35.70
2018-05-07T12:08:29.204Z,37.70
2018-05-07T12:10:57.411Z,37.80
2018-05-07T12:13:25.691Z,37.70
2018-05-07T12:15:53.973Z,37.20
2018-05-07T12:18:22.046Z,36.10
2018-05-07T12:20:50.207Z,37.60
2018-05-07T12:23:18.476Z,38.20
2018-05-07T12:25:46.581Z,37.50
2018-05-07T12:28:14.836Z,36.80
2018-05-07T12:30:43.107Z,36.10
2018-05-07T12:33:11.480Z,38.10
2018-05-07T12:35:39.768Z,35.50
2018-05-07T12:38:07.907Z,35.90
2018-05-07T12:40:36.127Z,37.10
2018-05-07T12:43:04.499Z,36.40
2018-05-07T12:45:33.463Z,34.40
2018-05-07T12:48:01.675Z,34.40
2018-05-07T12:50:29.835Z,35.70
2018-05-07T12:52:58.823Z,37.10
2018-05-07T12:55:27.022Z,37.10
2018-05-07T12:57:55.272Z,35.60
2018-05-07T13:00:23.456Z,36.30
2018-05-07T13:02:51.635Z,35.70
2018-05-07T13:05:19.829Z,32.80
2018-05-07T13:07:47.971Z,34.70
2018-05-07T13:10:16.145Z,35.90
2018-05-07T13:12:44.524Z,35.30
2018-05-07T13:15:12.811Z,35.70
2018-05-07T13:17:41.077Z,35.00
2018-05-07T13:20:09.251Z,36.30
2018-05-07T13:22:38.211Z,35.10
2018-05-07T13:25:06.427Z,35.00
2018-05-07T13:27:35.403Z,35.70
2018-05-07T13:30:03.692Z,36.30
2018-05-07T13:32:32.067Z,35.70
2018-05-07T13:35:00.447Z,35.80
2018-05-07T13:37:28.579Z,35.40
2018-05-07T13:39:56.759Z,35.50
2018-05-07T13:42:24.971Z,35.70
2018-05-07T13:44:53.261Z,34.90
2018-05-07T13:47:21.448Z,32.90
2018-05-07T13:49:49.616Z,35.30
2018-05-07T13:52:17.766Z,34.30
2018-05-07T13:54:45.930Z,34.90
2018-05-07T13:57:14.091Z,36.70
2018-05-07T13:59:42.243Z,35.60
2018-05-07T14:02:11.183Z,36.60
2018-05-07T14:04:39.436Z,36.60
2018-05-07T14:07:08.454Z,35.60
2018-05-07T14:09:36.613Z,35.50
2018-05-07T14:12:04.774Z,34.70
2018-05-07T14:14:32.957Z,34.60
2018-05-07T14:17:01.132Z,36.10
2018-05-07T14:19:29.300Z,35.90
2018-05-07T14:21:57.524Z,34.20
2018-05-07T14:24:26.124Z,34.90
2018-05-07T14:26:54.959Z,32.80
2018-05-07T14:29:23.097Z,32.80
2018-05-07T14:31:51.580Z,35.00
2018-05-07T14:34:19.731Z,35.60
2018-05-07T14:36:48.682Z,36.10
2018-05-07T14:39:16.844Z,36.10
2018-05-07T14:41:45.064Z,34.80
2018-05-07T14:44:13.219Z,35.50
2018-05-07T14:46:41.392Z,37.10
2018-05-07T14:49:10.483Z,34.90
2018-05-07T14:51:38.691Z,35.00
2018-05-07T14:54:07.611Z,36.00
2018-05-07T14:56:35.819Z,36.00
2018-05-07T14:59:03.971Z,37.40
2018-05-07T15:01:32.227Z,37.40
2018-05-07T15:04:00.375Z,36.60
2018-05-07T15:06:28.586Z,36.10
2018-05-07T15:08:56.747Z,36.40
2018-05-07T15:11:25.079Z,36.50
2018-05-07T15:14:05.103Z,37.20
2018-05-07T15:16:33.307Z,36.10
2018-05-07T15:19:01.468Z,35.20
2018-05-07T15:21:29.779Z,35.00
2018-05-07T15:23:57.935Z,35.70
2018-05-07T15:26:26.222Z,35.80
2018-05-07T15:28:54.362Z,36.00
2018-05-07T15:31:23.375Z,37.10
2018-05-07T15:33:51.537Z,37.10
2018-05-07T15:36:19.718Z,35.60
2018-05-07T15:38:47.992Z,36.60
2018-05-07T15:41:16.967Z,35.20
2018-05-07T15:43:45.137Z,35.20
2018-05-07T15:46:13.439Z,35.00
2018-05-07T15:48:41.604Z,35.80
2018-05-07T15:51:11.631Z,36.20
2018-05-07T15:53:39.819Z,36.20
2018-05-07T15:56:08.080Z,36.80
2018-05-07T15:58:36.275Z,39.60
2018-05-07T16:01:06.300Z,38.70
2018-05-07T16:03:34.449Z,38.10
2018-05-07T16:06:02.616Z,39.10
2018-05-07T16:08:30.796Z,40.20
2018-05-07T16:10:59.062Z,38.70
2018-05-07T16:13:27.235Z,38.60
2018-05-07T16:15:55.393Z,38.40
2018-05-07T16:18:23.565Z,39.80
2018-05-07T16:20:52.628Z,38.80
2018-05-07T16:23:21.006Z,38.70
2018-05-07T16:25:49.886Z,38.90
2018-05-07T16:28:18.229Z,38.90
2018-05-07T16:30:46.309Z,39.10
2018-05-07T16:33:14.496Z,39.80
2018-05-07T16:35:42.716Z,40.30
2018-05-07T16:38:10.847Z,39.70
2018-05-07T16:40:39.074Z,40.00
2018-05-07T16:43:07.242Z,40.60
2018-05-07T16:45:35.615Z,40.70
2018-05-07T16:48:03.627Z,39.80
2018-05-07T16:50:32.617Z,40.00
2018-05-07T16:53:00.896Z,40.00
2018-05-07T16:55:29.047Z,40.10
2018-05-07T16:57:57.207Z,40.50
2018-05-07T17:00:25.452Z,41.60
2018-05-07T17:02:54.408Z,41.50
2018-05-07T17:05:22.583Z,41.50
2018-05-07T17:07:50.875Z,41.70
2018-05-07T17:10:19.139Z,42.00
2018-05-07T17:12:47.315Z,42.60
2018-05-07T17:15:15.884Z,41.80
2018-05-07T17:17:44.055Z,42.50
2018-05-07T17:20:13.263Z,42.40
2018-05-07T17:22:41.448Z,42.40
2018-05-07T17:25:09.595Z,42.90
2018-05-07T17:27:37.893Z,42.80
2018-05-07T17:30:06.882Z,44.50
2018-05-07T17:32:35.042Z,44.50
2018-05-07T17:35:03.762Z,46.90
2018-05-07T17:37:31.956Z,47.60
2018-05-07T17:40:00.170Z,46.10
2018-05-07T17:42:28.678Z,46.60
2018-05-07T17:45:08.753Z,44.10
2018-05-07T17:47:48.982Z,43.40
2018-05-07T17:50:17.259Z,44.10
2018-05-07T17:52:45.539Z,44.20
2018-05-07T17:55:13.984Z,45.10
2018-05-07T17:57:42.660Z,46.20
2018-05-07T18:00:12.024Z,46.70
2018-05-07T18:02:41.578Z,47.60
2018-05-07T18:05:10.903Z,47.50
2018-05-07T18:07:39.374Z,48.20
2018-05-07T18:10:08.105Z,48.70
2018-05-07T18:12:36.343Z,49.10
2018-05-07T18:15:04.580Z,49.50
2018-05-07T18:17:33.201Z,49.90
2018-05-07T18:20:01.719Z,50.30
2018-05-07T18:22:29.967Z,50.80
2018-05-07T18:24:58.534Z,52.20
2018-05-07T18:27:26.910Z,52.30
2018-05-07T18:29:56.296Z,52.70
2018-05-07T18:32:25.357Z,53.90
2018-05-07T18:34:53.785Z,53.90
2018-05-07T18:37:22.743Z,54.50
2018-05-07T18:39:51.080Z,54.50
2018-05-07T18:42:19.291Z,54.90
2018-05-07T18:44:47.512Z,55.40
2018-05-07T18:47:15.785Z,55.60
2018-05-07T18:49:44.047Z,56.00
2018-05-07T18:52:13.727Z,57.10
2018-05-07T18:54:41.932Z,57.10
2018-05-07T18:57:10.920Z,58.00
2018-05-07T18:59:39.907Z,58.70
2018-05-07T19:02:08.075Z,58.70
2018-05-07T19:04:36.681Z,58.90
2018-05-07T19:07:05.153Z,58.70
2018-05-07T19:09:35.301Z,59.70
2018-05-07T19:12:03.653Z,59.70
2018-05-07T19:14:32.658Z,60.10
2018-05-07T19:17:00.992Z,60.60
2018-05-07T19:19:29.800Z,61.40
2018-05-07T19:21:58.212Z,61.80
2018-05-07T19:24:29.140Z,63.40
2018-05-07T19:26:57.436Z,63.30
2018-05-07T19:29:27.455Z,64.40
2018-05-07T19:31:56.198Z,64.40
2018-05-07T19:34:24.682Z,64.70
2018-05-07T19:36:54.671Z,65.50
2018-05-07T19:39:23.268Z,65.50
2018-05-07T19:41:53.437Z,66.20
2018-05-07T19:44:21.759Z,66.10
2018-05-07T19:46:50.452Z,66.70
2018-05-07T19:49:18.958Z,66.80
2018-05-07T19:51:48.754Z,67.50
2018-05-07T19:54:17.111Z,67.50
2018-05-07T19:56:46.419Z,66.40
2018-05-07T19:59:15.520Z,67.40
2018-05-07T20:01:44.885Z,68.30
2018-05-07T20:04:14.827Z,69.10
2018-05-07T20:06:43.287Z,69.10
2018-05-07T20:09:11.601Z,68.80
2018-05-07T20:11:39.939Z,68.70
2018-05-07T20:14:09.038Z,70.80
2018-05-07T20:16:38.114Z,70.70
2018-05-07T20:19:08.280Z,70.70
2018-05-07T20:21:36.612Z,71.00
2018-05-07T20:24:05.026Z,72.10
2018-05-07T20:26:33.300Z,72.10
2018-05-07T20:29:01.624Z,70.40
2018-05-07T20:31:29.823Z,70.70
2018-05-07T20:33:58.063Z,72.10
2018-05-07T20:36:26.271Z,72.50
2018-05-07T20:38:54.552Z,72.00
2018-05-07T20:41:24.014Z,72.60
2018-05-07T20:43:52.935Z,73.10
2018-05-07T20:46:21.148Z,73.10
2018-05-07T20:48:50.310Z,73.80
2018-05-07T20:51:18.516Z,73.50
2018-05-07T20:53:46.724Z,73.60
2018-05-07T20:56:15.276Z,74.20
2018-05-07T20:58:44.166Z,75.70
2018-05-07T21:01:13.351Z,73.30
2018-05-07T21:03:42.054Z,73.30
2018-05-07T21:06:10.693Z,71.80
2018-05-07T21:08:39.430Z,72.60
2018-05-07T21:11:08.917Z,74.70
2018-05-07T21:13:38.515Z,75.60
2018-05-07T21:16:07.714Z,75.80
2018-05-07T21:18:37.627Z,72.80
2018-05-07T21:21:06.940Z,73.20
2018-05-07T21:23:35.879Z,71.10
2018-05-07T21:26:04.205Z,71.00
2018-05-07T21:28:34.110Z,71.10
2018-05-07T21:31:02.481Z,71.00
2018-05-07T21:33:31.062Z,72.30
2018-05-07T21:36:00.281Z,72.50
2018-05-07T21:38:28.804Z,72.50
2018-05-07T21:40:57.335Z,72.10
2018-05-07T21:43:25.601Z,72.80
2018-05-07T21:45:53.775Z,72.60
2018-05-07T21:48:22.043Z,72.70
2018-05-07T21:50:50.219Z,73.50
2018-05-07T21:53:18.476Z,74.60
2018-05-07T21:55:46.656Z,71.90
2018-05-07T21:58:14.811Z,72.80
2018-05-07T22:00:43.115Z,74.20
2018-05-07T22:03:11.270Z,72.00
2018-05-07T22:05:39.439Z,71.70
2018-05-07T22:08:07.716Z,72.70
2018-05-07T22:10:37.409Z,71.60
2018-05-07T22:13:05.575Z,71.60
2018-05-07T22:15:33.763Z,74.10
2018-05-07T22:18:02.175Z,72.40
2018-05-07T22:20:31.159Z,73.00
2018-05-07T22:23:00.855Z,72.90
2018-05-07T22:25:29.595Z,72.80
2018-05-07T22:27:58.034Z,73.60
2018-05-07T22:30:26.175Z,73.50
2018-05-07T22:32:54.499Z,70.40
2018-05-07T22:35:22.968Z,71.60
2018-05-07T22:37:51.551Z,72.90
2018-05-07T22:40:20.372Z,72.70
2018-05-07T22:42:49.871Z,70.00
2018-05-07T22:45:19.628Z,67.90
2018-05-07T22:47:48.530Z,67.90
2018-05-07T22:50:18.332Z,67.10
2018-05-07T22:52:48.050Z,67.10
2018-05-07T22:55:20.528Z,72.20
2018-05-07T22:57:50.243Z,72.00
2018-05-07T23:00:18.660Z,72.00
2018-05-07T23:02:48.031Z,71.10
2018-05-07T23:05:16.592Z,70.90
2018-05-07T23:07:45.493Z,70.70
2018-05-07T23:10:14.084Z,70.70
2018-05-07T23:12:43.212Z,72.80
2018-05-07T23:15:12.052Z,72.70
2018-05-07T23:17:40.735Z,72.50
2018-05-07T23:20:10.318Z,70.90
2018-05-07T23:22:39.766Z,71.60
2018-05-07T23:25:08.342Z,71.60
2018-05-07T23:27:38.657Z,71.20
2018-05-07T23:30:08.153Z,71.20
2018-05-07T23:32:42.442Z,71.40
2018-05-07T23:35:11.049Z,72.20
2018-05-07T23:37:39.829Z,71.90
2018-05-07T23:40:08.375Z,71.50
2018-05-07T23:42:36.993Z,73.40
2018-05-07T23:45:06.810Z,71.30
2018-05-07T23:47:36.106Z,72.00
2018-05-07T23:50:05.982Z,71.30
2018-05-07T23:52:34.311Z,71.30
2018-05-07T23:55:02.769Z,71.60
2018-05-07T23:57:31.461Z,71.10
2018-05-07T23:59:59.915Z,70.30
